createdAt,value
2022-09-13T00:01:13.967Z,8.00
2022-09-13T00:07:01.606Z,10.27
2022-09-13T00:45:02.276Z,8.07
2022-09-13T00:47:57.318Z,5.28
2022-09-13T00:50:49.108Z,7.75
2022-09-13T00:53:28.339Z,8.00
2022-09-13T00:56:15.854Z,5.53
2022-09-13T00:58:54.700Z,6.53
2022-09-13T01:01:25.779Z,7.65
2022-09-13T01:04:04.660Z,13.02
2022-09-13T01:09:54.532Z,7.20
2022-09-13T01:12:47.646Z,5.97
2022-09-13T01:15:16.898Z,5.97
2022-09-13T01:18:06.922Z,5.95
2022-09-13T01:20:58.724Z,7.93
2022-09-13T01:23:50.376Z,5.78
2022-09-13T01:32:15.184Z,5.32
2022-09-13T01:38:12.776Z,10.00
2022-09-13T01:41:04.824Z,23.13
2022-09-13T01:44:05.664Z,7.47
2022-09-13T01:50:09.151Z,5.05
2022-09-13T01:52:38.522Z,4.78
2022-09-13T01:55:35.671Z,6.57
2022-09-13T01:58:14.471Z,6.07
2022-09-13T02:07:18.063Z,8.35
2022-09-13T02:10:21.744Z,9.32
2022-09-13T02:12:54.598Z,5.15
2022-09-13T02:15:35.815Z,5.45
2022-09-13T02:18:11.504Z,4.82
2022-09-13T02:21:04.696Z,6.45
2022-09-13T02:23:40.760Z,5.38
2022-09-13T02:26:10.552Z,8.55
2022-09-13T02:28:57.965Z,6.65
2022-09-13T02:31:56.881Z,5.72
2022-09-13T02:34:26.842Z,4.93
2022-09-13T02:37:20.595Z,6.63
2022-09-13T02:40:17.054Z,8.85
2022-09-13T02:43:02.914Z,36.75
2022-09-13T02:46:03.774Z,22.48
2022-09-13T02:48:48.507Z,27.80
2022-09-13T02:51:21.370Z,15.95
2022-09-13T02:54:06.795Z,18.33
2022-09-13T02:56:57.516Z,24.27
2022-09-13T02:59:26.067Z,31.88
2022-09-13T03:02:00.179Z,25.33
2022-09-13T03:04:34.389Z,14.93
2022-09-13T03:07:07.952Z,10.07
2022-09-13T03:09:41.800Z,5.40
2022-09-13T03:12:32.073Z,6.93
2022-09-13T03:15:19.404Z,5.28
2022-09-13T03:18:18.338Z,7.25
2022-09-13T03:21:12.223Z,6.07
2022-09-13T03:24:18.612Z,10.38
2022-09-13T03:27:01.719Z,18.13
2022-09-13T03:29:58.309Z,8.60
2022-09-13T03:32:32.505Z,9.15
2022-09-13T03:35:08.352Z,6.53
2022-09-13T03:38:06.262Z,5.70
2022-09-13T03:40:52.679Z,7.15
2022-09-13T03:43:36.951Z,11.68
2022-09-13T03:46:19.491Z,13.35
2022-09-13T03:49:05.233Z,6.07
2022-09-13T03:51:55.321Z,7.47
2022-09-13T03:57:45.945Z,4.05
2022-09-13T04:03:32.945Z,7.13
2022-09-13T04:15:20.616Z,4.32
2022-09-13T04:18:09.766Z,8.40
2022-09-13T04:21:01.822Z,5.35
2022-09-13T04:26:56.784Z,4.60
2022-09-13T04:29:26.862Z,4.82
2022-09-13T04:32:32.808Z,7.70
2022-09-13T04:35:27.850Z,4.85
2022-09-13T04:38:24.409Z,4.97
2022-09-13T04:41:03.868Z,3.72
2022-09-13T04:44:09.826Z,4.70
2022-09-13T04:49:53.075Z,5.47
2022-09-13T04:52:54.468Z,5.85
2022-09-13T04:55:41.686Z,5.25
2022-09-13T04:58:19.756Z,7.68
2022-09-13T05:01:15.979Z,9.60
2022-09-13T05:04:08.216Z,5.15
2022-09-13T05:06:50.313Z,6.65
2022-09-13T05:12:38.750Z,6.38
2022-09-13T05:15:38.444Z,6.50
2022-09-13T05:18:09.253Z,4.28
2022-09-13T05:23:51.460Z,4.50
2022-09-13T05:26:59.058Z,5.80
2022-09-13T05:29:56.430Z,6.63
2022-09-13T05:32:31.920Z,3.63
2022-09-13T05:35:25.125Z,3.67
2022-09-13T05:38:01.996Z,6.70
2022-09-13T05:40:37.277Z,5.57
2022-09-13T05:43:34.876Z,4.30
2022-09-13T07:26:55.701Z,11.82
2022-09-13T18:08:01.945Z,9.77
2022-09-13T18:13:48.343Z,4.22
2022-09-13T18:19:45.854Z,8.52
2022-09-13T18:22:21.831Z,5.22
2022-09-13T18:25:07.249Z,6.85
2022-09-13T18:27:45.416Z,5.60
2022-09-13T18:30:20.217Z,5.65
2022-09-13T18:32:56.581Z,6.38
2022-09-13T18:35:32.134Z,4.90
2022-09-13T18:38:18.228Z,4.35
2022-09-13T18:41:32.086Z,5.45
2022-09-13T18:44:01.285Z,6.50
2022-09-13T18:49:42.238Z,6.35
2022-09-13T18:52:13.846Z,6.63
2022-09-13T18:54:44.794Z,10.63
2022-09-13T18:57:30.699Z,5.70
2022-09-13T19:00:12.290Z,5.68
2022-09-13T19:03:11.140Z,8.80
2022-09-13T19:05:41.181Z,5.97
2022-09-13T19:08:14.697Z,6.47
2022-09-13T19:10:43.452Z,6.47
2022-09-13T19:13:13.516Z,7.57
2022-09-13T19:15:51.528Z,8.52
2022-09-13T19:18:45.555Z,12.57
2022-09-13T19:21:14.959Z,9.27
2022-09-13T19:24:00.986Z,8.25
2022-09-13T19:26:46.553Z,7.22
2022-09-13T19:29:17.125Z,8.82
2022-09-13T19:31:46.626Z,7.82
2022-09-13T19:34:33.146Z,10.32
2022-09-13T19:37:21.366Z,9.73
2022-09-13T19:39:51.192Z,9.45
2022-09-13T20:00:12.924Z,7.10
2022-09-13T20:18:28.330Z,10.15
2022-09-13T20:21:34.559Z,5.78
2022-09-13T20:24:12.191Z,6.85
2022-09-13T20:26:54.605Z,7.90
2022-09-13T20:29:36.992Z,6.30
2022-09-13T20:32:17.294Z,7.95
2022-09-13T20:35:07.956Z,9.98
2022-09-13T20:37:47.886Z,9.07
2022-09-13T20:40:24.652Z,6.60
2022-09-13T20:43:09.436Z,10.00
2022-09-13T20:45:57.799Z,7.60
2022-09-13T20:48:36.916Z,7.75
2022-09-13T20:57:48.223Z,8.68
2022-09-13T21:06:25.800Z,8.88
2022-09-13T21:09:04.999Z,10.63
2022-09-13T21:11:36.649Z,6.65
2022-09-13T21:17:17.294Z,12.18
2022-09-13T21:20:04.089Z,8.57
2022-09-13T21:22:57.184Z,5.95
2022-09-13T21:25:25.415Z,9.20
2022-09-13T21:27:54.794Z,6.63
2022-09-13T21:30:39.427Z,5.10
2022-09-13T21:33:29.274Z,8.88
2022-09-13T21:36:04.144Z,6.22
2022-09-13T21:38:35.056Z,6.82
2022-09-13T21:41:19.114Z,10.88
2022-09-13T21:47:03.136Z,5.65
2022-09-13T21:49:31.010Z,7.38
2022-09-13T21:52:30.072Z,5.68
2022-09-13T21:55:03.715Z,5.65
2022-09-13T21:57:40.064Z,5.07
2022-09-13T22:00:24.526Z,7.32
2022-09-13T22:02:52.537Z,5.60
2022-09-13T22:05:35.500Z,7.38
2022-09-13T22:08:04.351Z,5.47
2022-09-13T22:10:46.904Z,5.07
2022-09-13T22:23:36.530Z,4.40
2022-09-13T22:26:12.522Z,7.40
2022-09-13T22:28:45.260Z,9.45
2022-09-13T22:31:18.801Z,5.38
2022-09-13T22:33:55.945Z,6.10
2022-09-13T22:43:15.494Z,5.03
2022-09-13T22:45:50.298Z,6.53
2022-09-13T22:51:38.050Z,4.63
2022-09-13T22:54:07.448Z,7.28
2022-09-13T22:56:44.219Z,6.40
2022-09-13T22:59:24.751Z,7.20
2022-09-13T23:02:24.572Z,4.27
2022-09-13T23:05:09.559Z,8.98
2022-09-13T23:10:55.593Z,7.35
2022-09-13T23:13:24.659Z,3.50
2022-09-13T23:16:06.103Z,3.78
2022-09-13T23:21:53.495Z,6.45
2022-09-13T23:27:39.740Z,5.03
2022-09-13T23:30:08.096Z,5.28
2022-09-13T23:32:42.391Z,4.85
2022-09-13T23:35:11.213Z,5.53
2022-09-13T23:40:52.113Z,7.57
2022-09-13T23:43:26.542Z,8.30
2022-09-13T23:45:57.048Z,11.60
2022-09-13T23:48:34.606Z,8.70
2022-09-13T23:51:10.460Z,5.22
2022-09-13T23:53:59.004Z,7.18
2022-09-13T23:56:38.475Z,6.38
2022-09-13T23:59:12.071Z,6.13
